createdAt,value
2018-11-14T00:00:31.778Z,8.60
2018-11-14T00:03:01.726Z,8.60
2018-11-14T00:05:36.654Z,8.60
2018-11-14T00:08:05.926Z,8.60
2018-11-14T00:10:34.638Z,8.60
2018-11-14T00:13:03.718Z,8.60
2018-11-14T00:42:48.818Z,8.50
2018-11-14T00:45:19.016Z,8.30
2018-11-14T00:47:48.350Z,8.30
2018-11-14T00:50:18.245Z,8.30
2018-11-14T00:52:47.138Z,8.30
2018-11-14T00:55:17.534Z,8.30
2018-11-14T00:57:49.817Z,8.30
2018-11-14T01:00:19.715Z,8.30
2018-11-14T01:02:48.478Z,8.30
2018-11-14T01:05:17.742Z,8.30
2018-11-14T01:07:47.634Z,8.30
2018-11-14T01:10:19.459Z,8.30
2018-11-14T01:12:48.830Z,8.30
2018-11-14T03:59:09.837Z,8.20
2018-11-14T04:01:46.469Z,7.70
2018-11-14T04:04:23.320Z,7.70
2018-11-14T04:07:02.799Z,7.60
2018-11-14T04:09:31.542Z,7.70
2018-11-14T04:12:02.705Z,7.70
2018-11-14T04:14:40.389Z,7.70
2018-11-14T04:17:10.921Z,7.60
2018-11-14T04:19:45.758Z,7.70
2018-11-14T04:22:25.937Z,7.70
2018-11-14T06:54:03.620Z,7.60
2018-11-14T06:56:37.308Z,7.10
2018-11-14T06:59:15.134Z,7.10
2018-11-14T07:04:21.212Z,7.00
2018-11-14T07:06:50.752Z,7.00
2018-11-14T07:09:21.700Z,7.00
2018-11-14T07:11:52.224Z,7.00
2018-11-14T07:14:28.772Z,7.00
2018-11-14T07:17:00.504Z,7.00
2018-11-14T07:19:33.331Z,7.00
2018-11-14T07:22:07.276Z,7.00
2018-11-14T07:24:36.386Z,7.00
2018-11-14T07:27:16.076Z,6.90
2018-11-14T07:29:47.009Z,7.00
2018-11-14T07:32:15.921Z,7.00
2018-11-14T07:37:22.317Z,7.20
2018-11-14T07:39:51.125Z,7.90
2018-11-14T07:45:45.405Z,8.20
2018-11-14T07:48:38.521Z,8.20
2018-11-14T07:51:14.968Z,8.10
2018-11-14T07:53:46.142Z,8.00
2018-11-14T07:56:17.877Z,8.00
2018-11-14T07:58:49.801Z,8.00
2018-11-14T08:01:30.193Z,8.00
2018-11-14T08:03:59.169Z,8.00
2018-11-14T08:06:30.082Z,8.10
2018-11-14T08:08:58.896Z,8.10
2018-11-14T08:11:32.809Z,8.10
2018-11-14T08:14:09.217Z,8.20
2018-11-14T08:27:08.746Z,8.70
2018-11-14T08:34:56.995Z,10.60
2018-11-14T08:40:35.847Z,11.20
2018-11-14T09:00:20.144Z,12.60
2018-11-14T09:02:50.686Z,13.00
2018-11-14T09:05:27.335Z,13.20
2018-11-14T09:08:03.083Z,13.40
2018-11-14T09:10:47.314Z,13.60
2018-11-14T09:13:51.003Z,13.80
2018-11-14T09:16:27.075Z,13.90
2018-11-14T09:19:59.507Z,14.20
2018-11-14T09:22:49.398Z,14.00
2018-11-14T13:05:06.579Z,13.80
2018-11-14T14:55:49.560Z,16.10
2018-11-14T15:01:18.816Z,13.20
2018-11-14T15:04:05.472Z,13.10
2018-11-14T15:06:37.804Z,13.10
2018-11-14T15:09:12.204Z,13.00
2018-11-14T15:14:46.278Z,12.90
2018-11-14T15:30:51.608Z,12.90
2018-11-14T15:33:20.440Z,12.80
2018-11-14T15:35:48.763Z,12.50
2018-11-14T15:38:17.036Z,12.50
2018-11-14T15:40:45.424Z,12.50
2018-11-14T15:43:13.864Z,12.40
2018-11-14T15:53:06.608Z,12.30
2018-11-14T16:12:56.733Z,12.20
2018-11-14T16:15:26.444Z,11.90
2018-11-14T16:22:52.449Z,11.80
2018-11-14T16:25:22.240Z,11.70
2018-11-14T17:30:25.250Z,11.60
2018-11-14T18:39:23.335Z,10.00
2018-11-14T18:44:33.102Z,9.20
2018-11-14T18:47:15.469Z,8.90
2018-11-14T18:54:50.130Z,8.80
2018-11-14T18:57:23.022Z,8.70
2018-11-14T19:05:07.407Z,8.70
2018-11-14T19:07:40.135Z,8.70
2018-11-14T20:00:40.242Z,8.60
2018-11-14T22:35:34.568Z,6.40
2018-11-14T23:16:55.797Z,6.30
2018-11-14T23:19:25.321Z,6.30
2018-11-14T23:21:54.009Z,6.30
2018-11-14T23:24:22.726Z,6.20
2018-11-14T23:26:54.881Z,6.20
2018-11-14T23:29:29.781Z,6.20
2018-11-14T23:32:01.014Z,6.20
2018-11-14T23:34:40.185Z,6.20
2018-11-14T23:37:10.549Z,6.20
2018-11-14T23:39:43.858Z,6.20
2018-11-14T23:42:13.345Z,6.10
2018-11-14T23:44:48.841Z,6.10
2018-11-14T23:47:18.385Z,6.10
2018-11-14T23:49:49.970Z,6.00
2018-11-14T23:52:19.118Z,5.90
2018-11-14T23:54:47.530Z,5.80
2018-11-14T23:57:16.062Z,5.70
2018-11-14T23:59:45.006Z,5.70
